Time;durP1;ratioP1;P1;durP2;ratioP2;P2;SDS_P1;SDS_P2;PMS_P1;PMS_P2;Temp;Humidity;BMP_temperature;BMP_pressure;BME280_temperature;BME280_humidity;BME280_pressure;Samples;Min_cycle;Max_cycle;Signal;HPM_P1;HPM_P2
2022/12/11 00:02:07;;;;;;;6.70;1.87;;;-1.00;99.90;;;;;;5073137;28;20834;-62
2022/12/11 00:04:34;;;;;;;3.90;2.13;;;-1.10;99.90;;;;;;5099724;28;20481;-62
2022/12/11 00:07:01;;;;;;;5.80;2.80;;;-1.20;99.90;;;;;;5116657;28;20452;-62
2022/12/11 00:09:29;;;;;;;7.33;3.03;;;-1.20;99.90;;;;;;5116202;28;20464;-62
2022/12/11 00:11:56;;;;;;;5.93;2.67;;;-1.20;99.90;;;;;;5118168;28;20938;-62
2022/12/11 00:14:23;;;;;;;5.93;1.20;;;-1.20;99.90;;;;;;5119174;28;20487;-62
2022/12/11 00:16:50;;;;;;;9.23;2.30;;;-1.10;99.90;;;;;;5118972;28;20502;-62
2022/12/11 00:19:17;;;;;;;4.50;2.03;;;-1.00;99.90;;;;;;5119468;28;20476;-62
2022/12/11 00:21:44;;;;;;;5.23;2.90;;;-0.90;99.90;;;;;;5119709;28;20506;-62
2022/12/11 00:24:11;;;;;;;8.03;2.63;;;-0.80;99.90;;;;;;5118880;28;20529;-62
2022/12/11 00:26:39;;;;;;;3.90;1.80;;;-0.80;99.90;;;;;;5119304;28;20445;-62
2022/12/11 00:29:09;;;;;;;3.97;1.97;;;-0.70;99.90;;;;;;5118510;28;20833;-62
2022/12/11 00:31:40;;;;;;;7.97;2.33;;;-0.70;99.90;;;;;;5119356;28;20456;-62
2022/12/11 00:34:07;;;;;;;6.17;2.03;;;-0.60;99.90;;;;;;5118062;28;20959;-62
2022/12/11 00:36:34;;;;;;;4.37;2.27;;;-0.50;99.90;;;;;;5119235;28;20499;-62
2022/12/11 00:39:02;;;;;;;5.57;1.47;;;-0.50;99.90;;;;;;5119168;28;20480;-62
2022/12/11 00:41:28;;;;;;;7.83;3.50;;;-0.40;99.90;;;;;;5118610;28;20452;-62
2022/12/11 00:43:57;;;;;;;8.77;3.17;;;-0.40;99.90;;;;;;5118907;28;20509;-61
2022/12/11 00:46:24;;;;;;;7.20;3.77;;;-0.40;99.90;;;;;;5119175;28;20476;-62
2022/12/11 00:48:52;;;;;;;4.67;2.00;;;-0.40;99.90;;;;;;5118953;28;20984;-62
2022/12/11 00:51:19;;;;;;;9.23;2.70;;;-0.30;99.90;;;;;;5117568;28;20489;-62
2022/12/11 00:53:46;;;;;;;6.57;2.30;;;-0.40;99.90;;;;;;5118056;28;20600;-62
2022/12/11 00:56:15;;;;;;;6.10;2.60;;;-0.40;99.90;;;;;;5117907;28;20456;-61
2022/12/11 00:58:42;;;;;;;4.57;2.70;;;-0.40;99.90;;;;;;5118616;28;20522;-62
2022/12/11 01:01:12;;;;;;;5.53;2.60;;;-0.40;99.90;;;;;;5119119;28;20498;-62
2022/12/11 01:03:39;;;;;;;4.70;1.93;;;-0.30;99.90;;;;;;5118477;28;20531;-61
2022/12/11 01:06:07;;;;;;;5.43;1.77;;;-0.30;99.90;;;;;;5118520;28;20512;-62
2022/12/11 01:08:34;;;;;;;7.80;1.50;;;-0.30;99.90;;;;;;5118161;28;20440;-61
2022/12/11 01:11:02;;;;;;;5.40;1.90;;;-0.40;99.90;;;;;;5118264;28;21016;-62
2022/12/11 01:13:29;;;;;;;4.93;2.23;;;-0.40;99.90;;;;;;5117344;28;20476;-61
2022/12/11 01:15:59;;;;;;;4.80;2.07;;;-0.30;99.90;;;;;;5117232;28;20463;-62
2022/12/11 01:18:28;;;;;;;5.00;2.37;;;-0.10;99.90;;;;;;5116690;28;20792;-62
2022/12/11 01:20:54;;;;;;;5.87;2.67;;;0.00;99.90;;;;;;5118065;28;20529;-62
2022/12/11 01:23:21;;;;;;;5.87;2.73;;;0.20;99.90;;;;;;5117067;28;20445;-62
2022/12/11 01:25:48;;;;;;;3.73;1.97;;;0.30;99.90;;;;;;5117801;28;20918;-62
2022/12/11 01:28:15;;;;;;;7.80;3.13;;;0.20;99.90;;;;;;5117720;28;20477;-62
2022/12/11 01:30:43;;;;;;;6.10;2.10;;;0.30;99.90;;;;;;5118512;28;20449;-62
2022/12/11 01:33:10;;;;;;;6.27;1.80;;;0.20;99.90;;;;;;5118154;28;20451;-62
2022/12/11 01:35:40;;;;;;;8.00;2.10;;;0.10;99.90;;;;;;5117354;28;20488;-62
2022/12/11 01:38:07;;;;;;;5.70;3.20;;;0.00;99.90;;;;;;5117744;28;20606;-62
2022/12/11 01:40:34;;;;;;;9.33;3.50;;;0.00;99.90;;;;;;5116935;28;20514;-61
2022/12/11 01:43:01;;;;;;;4.90;2.17;;;0.00;99.90;;;;;;5116806;28;20519;-61
2022/12/11 01:45:40;;;;;;;4.23;2.50;;;-0.10;99.90;;;;;;5118280;28;20456;-61
2022/12/11 01:48:10;;;;;;;7.53;2.40;;;-0.20;99.90;;;;;;5117828;28;20444;-62
2022/12/11 01:50:43;;;;;;;5.13;2.37;;;-0.20;99.90;;;;;;5117988;28;20502;-62
2022/12/11 01:53:14;;;;;;;6.27;2.27;;;-0.20;99.90;;;;;;5118226;28;20502;-61
2022/12/11 01:55:41;;;;;;;8.10;1.80;;;-0.20;99.90;;;;;;5117959;28;20505;-61
2022/12/11 01:58:11;;;;;;;6.17;2.70;;;-0.20;99.90;;;;;;5117732;28;20509;-61
2022/12/11 02:00:39;;;;;;;4.80;1.90;;;-0.20;99.90;;;;;;5117205;28;20453;-61
2022/12/11 02:03:06;;;;;;;7.80;1.60;;;-0.20;99.90;;;;;;5117718;28;20448;-61
2022/12/11 02:05:32;;;;;;;6.60;1.73;;;-0.10;99.90;;;;;;5117754;28;20477;-61
2022/12/11 02:08:02;;;;;;;4.03;1.60;;;-0.10;99.90;;;;;;5111938;28;20939;-61
2022/12/11 02:10:42;;;;;;;7.90;1.87;;;-0.10;99.90;;;;;;5095621;28;20478;-61
2022/12/11 02:13:14;;;;;;;4.37;1.40;;;-0.10;99.90;;;;;;5096296;28;20877;-62
2022/12/11 02:15:48;;;;;;;5.30;1.20;;;0.00;99.90;;;;;;5097641;28;20949;-61
2022/12/11 02:18:25;;;;;;;5.97;2.40;;;0.00;99.90;;;;;;5096237;28;20492;-61
2022/12/11 02:20:58;;;;;;;4.97;1.73;;;0.00;99.90;;;;;;5096838;28;20546;-61
2022/12/11 02:24:00;;;;;;;2.40;1.30;;;0.00;99.90;;;;;;5096957;28;20905;-62
2022/12/11 02:26:51;;;;;;;4.67;1.67;;;0.00;99.90;;;;;;5089805;28;20843;-61
2022/12/11 02:29:23;;;;;;;5.40;1.57;;;0.00;99.90;;;;;;5095904;28;20478;-64
2022/12/11 02:31:55;;;;;;;5.30;2.27;;;-0.10;99.90;;;;;;5096400;28;20454;-62
2022/12/11 02:34:28;;;;;;;5.17;1.60;;;0.00;99.90;;;;;;5096555;28;20512;-62
2022/12/11 02:36:59;;;;;;;4.13;1.40;;;-0.10;99.90;;;;;;5096459;28;20482;-62
2022/12/11 02:39:27;;;;;;;5.07;1.87;;;-0.20;99.90;;;;;;5095328;28;20464;-61
2022/12/11 02:41:56;;;;;;;3.70;2.00;;;-0.20;99.90;;;;;;5096063;28;20480;-61
2022/12/11 02:44:27;;;;;;;5.80;2.60;;;-0.20;99.90;;;;;;5094769;28;20473;-61
2022/12/11 02:46:54;;;;;;;6.60;1.30;;;-0.20;99.90;;;;;;5095712;28;20927;-62
2022/12/11 02:49:23;;;;;;;2.87;1.03;;;-0.10;99.90;;;;;;5096552;28;20562;-61
2022/12/11 02:51:52;;;;;;;5.60;1.53;;;0.00;99.90;;;;;;5096029;28;20496;-62
2022/12/11 02:54:21;;;;;;;5.60;1.53;;;0.10;99.90;;;;;;5096772;28;20513;-62
2022/12/11 02:56:57;;;;;;;4.80;1.93;;;0.10;99.90;;;;;;5096438;28;20582;-62
2022/12/11 02:59:29;;;;;;;2.97;1.10;;;0.20;99.90;;;;;;5095669;28;20473;-62
2022/12/11 03:01:56;;;;;;;2.73;1.23;;;0.30;99.90;;;;;;5095291;28;20515;-62
2022/12/11 03:04:23;;;;;;;4.40;1.40;;;0.50;99.90;;;;;;5095516;28;20509;-62
2022/12/11 03:06:55;;;;;;;3.37;1.53;;;0.60;99.90;;;;;;5112976;28;20460;-62
2022/12/11 03:09:22;;;;;;;4.33;1.30;;;0.60;99.90;;;;;;5116109;28;20483;-62
2022/12/11 03:11:49;;;;;;;2.47;1.03;;;0.60;99.90;;;;;;5115620;28;20812;-61
2022/12/11 03:14:16;;;;;;;3.50;1.40;;;0.60;99.90;;;;;;5115874;28;20519;-61
2022/12/11 03:16:53;;;;;;;3.47;1.30;;;0.60;99.90;;;;;;5116280;28;20521;-62
2022/12/11 03:19:27;;;;;;;3.83;1.57;;;0.60;99.90;;;;;;5116314;28;20451;-62
2022/12/11 03:21:59;;;;;;;3.83;2.07;;;0.50;99.90;;;;;;5116544;28;20487;-62
2022/12/11 03:24:32;;;;;;;4.53;1.20;;;0.50;99.90;;;;;;5115849;28;20443;-62
2022/12/11 03:27:06;;;;;;;2.60;1.57;;;0.60;99.90;;;;;;5116149;28;20954;-61
2022/12/11 03:29:39;;;;;;;4.07;1.43;;;0.50;99.90;;;;;;5115899;28;20469;-61
2022/12/11 03:32:12;;;;;;;2.30;1.07;;;0.50;99.90;;;;;;5115857;28;20810;-62
2022/12/11 03:34:43;;;;;;;2.37;1.20;;;0.60;99.90;;;;;;5116048;28;20530;-62
2022/12/11 03:37:11;;;;;;;5.03;1.50;;;0.60;99.90;;;;;;5115980;28;20498;-62
2022/12/11 03:39:44;;;;;;;2.47;1.43;;;0.60;99.90;;;;;;5115977;28;20887;-62
2022/12/11 03:42:14;;;;;;;2.20;1.00;;;0.60;99.90;;;;;;5116619;28;20828;-62
2022/12/11 03:44:44;;;;;;;5.70;1.97;;;0.60;99.90;;;;;;5116375;28;20480;-62
2022/12/11 03:47:18;;;;;;;7.03;1.10;;;0.40;99.90;;;;;;5115277;28;20873;-61
2022/12/11 03:49:46;;;;;;;4.10;1.20;;;0.30;99.90;;;;;;5115047;28;20445;-62
2022/12/11 03:52:15;;;;;;;6.93;2.27;;;0.30;99.90;;;;;;5115053;28;20472;-62
2022/12/11 03:54:45;;;;;;;4.60;1.70;;;0.30;99.90;;;;;;5113733;28;20853;-62
2022/12/11 03:57:16;;;;;;;5.70;1.90;;;0.30;99.90;;;;;;5114380;28;20444;-62
2022/12/11 03:59:43;;;;;;;3.20;1.33;;;0.30;99.90;;;;;;5114676;28;20472;-61
2022/12/11 04:02:10;;;;;;;3.00;1.20;;;0.20;99.90;;;;;;5116355;28;20887;-62
2022/12/11 04:04:39;;;;;;;3.53;1.20;;;0.20;99.90;;;;;;5114879;28;20469;-62
2022/12/11 04:07:06;;;;;;;5.57;1.37;;;0.00;99.90;;;;;;5115902;28;20484;-62
2022/12/11 04:09:34;;;;;;;3.83;1.60;;;0.00;99.90;;;;;;5114954;28;20485;-62
2022/12/11 04:12:01;;;;;;;6.17;1.70;;;-0.10;99.90;;;;;;5115374;28;20482;-62
2022/12/11 04:24:13;;;;;;;5.13;2.03;;;-0.10;99.90;;;;;;5113221;28;20467;-62
2022/12/11 04:25:29;;;;;;;2.80;1.37;;;0.00;99.90;;;;;;5113956;28;20854;-62
2022/12/11 04:27:56;;;;;;;8.03;2.20;;;0.00;99.90;;;;;;5111695;28;20499;-62
2022/12/11 04:30:24;;;;;;;4.87;2.17;;;-0.10;99.90;;;;;;5114766;28;20549;-62
2022/12/11 04:32:51;;;;;;;4.03;1.23;;;-0.10;99.90;;;;;;5114960;28;20480;-62
2022/12/11 04:35:21;;;;;;;7.40;2.77;;;-0.20;99.90;;;;;;5115551;28;20523;-62
2022/12/11 04:37:48;;;;;;;5.47;2.00;;;-0.10;99.90;;;;;;5115243;28;20480;-62
2022/12/11 04:40:17;;;;;;;4.17;1.73;;;-0.20;99.90;;;;;;5114767;28;20472;-62
2022/12/11 04:42:44;;;;;;;4.90;1.40;;;-0.20;99.90;;;;;;5115326;28;20471;-61
2022/12/11 04:45:12;;;;;;;3.87;1.87;;;-0.20;99.90;;;;;;5114661;28;20496;-61
2022/12/11 04:47:40;;;;;;;4.93;2.47;;;-0.20;99.90;;;;;;5114847;28;20468;-62
2022/12/11 04:50:13;;;;;;;5.37;2.27;;;-0.30;99.90;;;;;;5116959;28;20452;-61
2022/12/11 04:52:41;;;;;;;4.13;1.43;;;-0.30;99.90;;;;;;5118303;28;20445;-62
2022/12/11 04:55:10;;;;;;;5.90;2.30;;;-0.30;99.90;;;;;;5118269;28;20520;-61
2022/12/11 04:57:37;;;;;;;2.60;1.30;;;-0.30;99.90;;;;;;5117997;28;20756;-61
2022/12/11 05:00:06;;;;;;;7.73;1.97;;;-0.40;99.90;;;;;;5117921;28;20541;-61
2022/12/11 05:02:35;;;;;;;3.80;1.73;;;-0.30;99.90;;;;;;5118233;28;20461;-61
2022/12/11 05:05:03;;;;;;;3.70;1.50;;;-0.40;99.90;;;;;;5117111;28;20494;-61
2022/12/11 05:07:30;;;;;;;5.63;1.60;;;-0.40;99.90;;;;;;5118315;28;20778;-61
2022/12/11 05:09:58;;;;;;;3.50;1.10;;;-0.40;99.90;;;;;;5119415;28;20491;-61
2022/12/11 05:12:25;;;;;;;3.73;1.77;;;-0.40;99.90;;;;;;5119624;28;20471;-62
2022/12/11 05:14:53;;;;;;;6.93;1.97;;;-0.40;99.90;;;;;;5119097;28;20508;-62
2022/12/11 05:17:20;;;;;;;3.50;1.30;;;-0.40;99.90;;;;;;5118950;28;20717;-62
2022/12/11 05:19:48;;;;;;;6.30;1.50;;;-0.40;99.90;;;;;;5119097;28;20494;-61
2022/12/11 05:22:15;;;;;;;4.73;2.27;;;-0.40;99.90;;;;;;5118489;28;20440;-62
2022/12/11 05:24:43;;;;;;;6.07;1.77;;;-0.40;99.90;;;;;;5118997;28;20445;-62
2022/12/11 05:27:11;;;;;;;5.73;2.40;;;-0.40;99.90;;;;;;5118451;28;20459;-62
2022/12/11 05:29:38;;;;;;;4.80;1.30;;;-0.40;99.90;;;;;;5118678;28;20437;-61
2022/12/11 05:32:05;;;;;;;4.87;2.00;;;-0.10;99.90;;;;;;5118717;28;20541;-62
2022/12/11 05:34:32;;;;;;;8.70;1.80;;;-0.10;99.90;;;;;;5117817;28;20477;-61
2022/12/11 05:37:00;;;;;;;6.67;1.40;;;-0.30;99.90;;;;;;5118259;28;20480;-61
2022/12/11 05:39:26;;;;;;;4.00;1.67;;;-0.40;99.90;;;;;;5117766;28;21113;-61
2022/12/11 05:41:53;;;;;;;3.43;1.50;;;-0.50;99.90;;;;;;5118106;28;20477;-61
2022/12/11 05:44:22;;;;;;;6.20;1.60;;;-0.60;99.90;;;;;;5116696;28;20536;-61
2022/12/11 05:46:49;;;;;;;4.20;1.30;;;-0.70;99.90;;;;;;5078725;28;20927;-61
2022/12/11 05:49:16;;;;;;;6.93;1.93;;;-0.80;99.90;;;;;;5087807;28;20470;-61
2022/12/11 05:51:43;;;;;;;3.57;1.37;;;-0.60;99.90;;;;;;5079849;28;20455;-61
2022/12/11 05:54:11;;;;;;;7.20;1.77;;;-0.50;99.90;;;;;;5086998;28;20451;-61
2022/12/11 05:56:38;;;;;;;5.70;1.90;;;-0.40;99.90;;;;;;5079813;28;20452;-61
2022/12/11 05:59:06;;;;;;;4.83;2.03;;;-0.30;99.90;;;;;;5088036;28;20588;-61
2022/12/11 06:01:36;;;;;;;4.97;1.80;;;-0.10;99.90;;;;;;5081304;28;20553;-62
2022/12/11 06:04:05;;;;;;;5.97;1.97;;;0.00;99.90;;;;;;5087213;28;20760;-61
2022/12/11 06:06:33;;;;;;;2.00;1.57;;;0.10;99.90;;;;;;5082213;28;20461;-61
2022/12/11 06:09:00;;;;;;;3.67;1.27;;;0.00;99.90;;;;;;5087629;28;20465;-62
2022/12/11 06:11:30;;;;;;;3.30;1.30;;;0.00;99.90;;;;;;5082848;28;20490;-61
2022/12/11 06:13:58;;;;;;;3.80;1.70;;;0.10;99.90;;;;;;5085282;28;20449;-61
2022/12/11 06:16:25;;;;;;;6.27;3.00;;;0.20;99.90;;;;;;5080939;28;20513;-61
2022/12/11 06:18:53;;;;;;;3.70;1.80;;;0.20;99.90;;;;;;5083422;28;20807;-61
2022/12/11 06:21:22;;;;;;;3.60;1.60;;;0.30;99.90;;;;;;5082191;28;20458;-61
2022/12/11 06:23:51;;;;;;;5.70;2.80;;;0.20;99.90;;;;;;5083947;28;20473;-61
2022/12/11 06:26:20;;;;;;;4.10;1.90;;;0.10;99.90;;;;;;5082541;28;20497;-61
2022/12/11 06:28:48;;;;;;;5.17;2.73;;;0.00;99.90;;;;;;5085806;28;20884;-61
2022/12/11 06:31:15;;;;;;;8.67;2.10;;;-0.10;99.90;;;;;;5084385;28;20494;-61
2022/12/11 06:33:43;;;;;;;7.30;3.00;;;-0.10;99.90;;;;;;5083977;28;20835;-61
2022/12/11 06:36:13;;;;;;;7.50;2.30;;;-0.10;99.90;;;;;;5084805;28;20518;-61
2022/12/11 06:38:40;;;;;;;5.10;2.00;;;0.00;99.90;;;;;;5083775;28;20499;-61
2022/12/11 06:41:09;;;;;;;3.57;1.70;;;0.10;99.90;;;;;;5084895;28;20517;-61
2022/12/11 06:43:38;;;;;;;5.47;1.70;;;0.10;99.90;;;;;;5082731;28;20900;-61
2022/12/11 06:46:05;;;;;;;5.57;2.33;;;0.00;99.90;;;;;;5085267;28;20487;-61
2022/12/11 06:48:33;;;;;;;4.70;2.33;;;-0.10;99.90;;;;;;5082917;28;20530;-61
2022/12/11 06:51:00;;;;;;;4.90;2.00;;;-0.10;99.90;;;;;;5086218;28;20489;-61
2022/12/11 06:53:28;;;;;;;4.57;2.47;;;-0.30;99.90;;;;;;5082102;28;20450;-61
2022/12/11 06:55:55;;;;;;;6.17;2.53;;;-0.50;99.90;;;;;;5087171;28;20525;-61
2022/12/11 06:58:22;;;;;;;4.20;2.63;;;-0.70;99.90;;;;;;5081753;28;20531;-61
2022/12/11 07:00:49;;;;;;;6.47;2.90;;;-0.90;99.90;;;;;;5087552;28;20504;-61
2022/12/11 07:03:16;;;;;;;6.27;2.00;;;-1.00;99.90;;;;;;5080277;28;20540;-61
2022/12/11 07:05:42;;;;;;;4.17;2.03;;;-1.00;99.90;;;;;;5088108;28;20509;-61
2022/12/11 07:08:09;;;;;;;9.90;2.23;;;-1.10;99.90;;;;;;5079451;28;20495;-61
2022/12/11 07:10:38;;;;;;;7.90;2.30;;;-1.10;99.90;;;;;;5089445;28;20490;-61
2022/12/11 07:13:04;;;;;;;5.77;1.83;;;-1.20;99.90;;;;;;5078537;28;20485;-61
2022/12/11 07:15:31;;;;;;;8.67;3.33;;;-1.20;99.90;;;;;;5090070;28;20526;-61
2022/12/11 07:17:58;;;;;;;4.27;2.00;;;-1.20;99.90;;;;;;5078094;28;20471;-61
2022/12/11 07:20:25;;;;;;;5.63;2.30;;;-1.20;99.90;;;;;;5090438;28;20928;-61
2022/12/11 07:22:54;;;;;;;9.63;2.33;;;-1.20;99.90;;;;;;5076091;28;20541;-61
2022/12/11 07:25:21;;;;;;;8.77;2.80;;;-1.20;99.90;;;;;;5090363;28;20508;-61
2022/12/11 07:27:49;;;;;;;4.43;1.50;;;-1.20;99.90;;;;;;5074818;28;20446;-61
2022/12/11 07:30:16;;;;;;;3.83;2.03;;;-1.20;99.90;;;;;;5091110;28;20874;-61
2022/12/11 07:32:43;;;;;;;6.20;1.70;;;-1.10;99.90;;;;;;5075029;28;20474;-61
2022/12/11 07:35:10;;;;;;;4.40;1.30;;;-0.90;99.90;;;;;;5095901;28;20485;-61
2022/12/11 07:37:39;;;;;;;5.70;1.50;;;-0.70;99.90;;;;;;5096568;28;20489;-60
2022/12/11 07:40:08;;;;;;;5.27;1.70;;;-0.60;99.90;;;;;;5095870;28;20512;-61
2022/12/11 07:42:35;;;;;;;5.10;2.00;;;-0.40;99.90;;;;;;5095520;28;20450;-62
2022/12/11 07:45:04;;;;;;;7.40;2.03;;;-0.30;99.90;;;;;;5095455;28;20538;-61
2022/12/11 07:47:31;;;;;;;6.77;4.23;;;-0.20;99.90;;;;;;5095795;28;20452;-61
2022/12/11 07:49:58;;;;;;;5.40;1.70;;;-0.20;99.90;;;;;;5095313;28;20481;-61
2022/12/11 07:52:25;;;;;;;6.10;2.50;;;-0.10;99.90;;;;;;5096168;28;20437;-60
2022/12/11 07:54:52;;;;;;;5.23;2.20;;;-0.10;99.90;;;;;;5095310;28;20449;-60
2022/12/11 07:57:19;;;;;;;4.27;1.83;;;-0.20;99.90;;;;;;5095238;28;20796;-60
2022/12/11 07:59:46;;;;;;;6.20;2.13;;;-0.20;99.90;;;;;;5095194;28;20547;-60
2022/12/11 08:02:15;;;;;;;6.50;1.97;;;-0.10;99.90;;;;;;5095272;28;20454;-60
2022/12/11 08:04:42;;;;;;;6.30;1.90;;;-0.10;99.90;;;;;;5095222;28;20496;-61
2022/12/11 08:07:09;;;;;;;5.50;2.30;;;-0.20;99.90;;;;;;5095579;28;20481;-61
2022/12/11 08:09:35;;;;;;;7.93;1.43;;;-0.10;99.90;;;;;;5095626;28;20900;-61
2022/12/11 08:12:02;;;;;;;3.60;1.90;;;0.00;99.90;;;;;;5094922;28;20613;-60
2022/12/11 08:14:29;;;;;;;3.73;1.93;;;0.10;99.90;;;;;;5095849;28;20473;-61
2022/12/11 08:16:58;;;;;;;4.63;1.83;;;0.10;99.90;;;;;;5095806;28;20524;-61
2022/12/11 08:19:27;;;;;;;4.30;1.60;;;0.00;99.90;;;;;;5095680;28;20457;-61
2022/12/11 08:21:54;;;;;;;6.70;2.80;;;0.00;99.90;;;;;;5094500;28;20536;-61
2022/12/11 08:24:21;;;;;;;6.60;2.10;;;0.20;99.90;;;;;;5095358;28;20503;-61
2022/12/11 08:26:49;;;;;;;4.77;2.17;;;0.20;99.90;;;;;;5099274;28;20540;-61
2022/12/11 08:29:16;;;;;;;5.30;1.73;;;0.30;99.90;;;;;;5098653;28;20445;-61
2022/12/11 08:31:43;;;;;;;4.27;1.53;;;0.20;99.90;;;;;;5096840;28;20487;-61
2022/12/11 08:34:12;;;;;;;3.77;1.73;;;0.10;99.90;;;;;;5098699;28;20481;-61
2022/12/11 08:36:41;;;;;;;7.03;2.00;;;0.10;99.90;;;;;;5098368;28;20519;-60
2022/12/11 08:39:08;;;;;;;6.63;1.87;;;0.00;99.90;;;;;;5099533;28;20452;-61
2022/12/11 08:41:35;;;;;;;6.77;2.37;;;0.00;99.90;;;;;;5098949;28;20473;-61
2022/12/11 08:44:02;;;;;;;4.90;1.70;;;-0.10;99.90;;;;;;5099087;28;20445;-61
2022/12/11 08:46:31;;;;;;;5.30;1.43;;;-0.10;99.90;;;;;;5098191;28;20446;-61
2022/12/11 08:48:59;;;;;;;3.43;2.17;;;-0.20;99.90;;;;;;5098319;28;20529;-61
2022/12/11 08:51:29;;;;;;;6.60;1.50;;;-0.30;99.90;;;;;;5097971;28;20489;-61
2022/12/11 08:53:59;;;;;;;6.87;1.57;;;-0.30;99.90;;;;;;5098413;28;20504;-61
2022/12/11 08:56:26;;;;;;;4.87;1.63;;;-0.20;99.90;;;;;;5096920;28;20757;-61
2022/12/11 08:58:53;;;;;;;4.50;1.20;;;-0.10;99.90;;;;;;5098496;28;20481;-61
2022/12/11 09:01:23;;;;;;;6.67;1.70;;;-0.10;99.90;;;;;;5097962;28;20880;-61
2022/12/11 09:03:50;;;;;;;9.17;1.80;;;-0.10;99.90;;;;;;5114162;28;20484;-61
2022/12/11 09:06:19;;;;;;;4.33;2.03;;;-0.10;99.90;;;;;;5116235;28;20445;-61
2022/12/11 09:08:48;;;;;;;7.10;2.60;;;-0.20;99.90;;;;;;5114984;28;20511;-61
2022/12/11 09:11:19;;;;;;;4.67;1.60;;;-0.20;99.90;;;;;;5117639;28;20970;-61
2022/12/11 09:13:47;;;;;;;9.77;2.70;;;-0.20;99.90;;;;;;5116085;28;20440;-61
2022/12/11 09:16:17;;;;;;;5.27;2.20;;;-0.10;99.90;;;;;;5116470;28;20480;-61
2022/12/11 09:18:47;;;;;;;9.27;2.60;;;0.00;99.90;;;;;;5114602;28;20531;-61
2022/12/11 09:21:17;;;;;;;5.20;1.87;;;0.10;99.90;;;;;;5117173;28;20457;-61
2022/12/11 09:23:44;;;;;;;5.70;2.33;;;0.10;99.90;;;;;;5113593;28;20782;-61
2022/12/11 09:26:14;;;;;;;6.73;2.37;;;0.10;99.90;;;;;;5115400;28;20537;-60
2022/12/11 09:28:42;;;;;;;7.00;2.00;;;0.10;99.90;;;;;;5115788;28;20457;-60
2022/12/11 09:31:10;;;;;;;5.07;1.30;;;0.00;99.90;;;;;;5109151;28;20547;-61
2022/12/11 09:33:37;;;;;;;5.30;2.10;;;0.00;99.90;;;;;;5117404;28;20502;-61
2022/12/11 09:36:08;;;;;;;11.33;2.83;;;0.00;99.90;;;;;;5107579;28;20504;-61
2022/12/11 09:38:36;;;;;;;11.07;1.10;;;0.00;99.90;;;;;;5116332;28;20441;-61
2022/12/11 09:41:26;;;;;;;5.60;2.37;;;0.20;99.90;;;;;;5114605;28;20543;-61
2022/12/11 09:44:02;;;;;;;3.50;1.50;;;0.20;99.90;;;;;;5115779;28;20488;-61
2022/12/11 09:46:30;;;;;;;5.77;1.80;;;0.30;99.90;;;;;;5103636;28;20535;-61
2022/12/11 09:48:58;;;;;;;6.50;1.60;;;0.30;99.90;;;;;;5100894;28;20544;-61
2022/12/11 09:51:32;;;;;;;4.17;1.20;;;0.40;99.90;;;;;;5115993;28;20502;-61
2022/12/11 09:54:03;;;;;;;3.33;1.37;;;0.50;99.90;;;;;;5116099;28;20457;-61
2022/12/11 09:56:39;;;;;;;5.43;1.40;;;0.60;99.90;;;;;;5110365;28;20569;-61
2022/12/11 09:59:16;;;;;;;3.47;1.27;;;0.60;99.90;;;;;;5109528;28;20456;-61
2022/12/11 10:01:49;;;;;;;2.93;1.20;;;0.60;99.90;;;;;;5111633;28;20951;-61
2022/12/11 10:04:38;;;;;;;5.33;1.50;;;0.70;99.90;;;;;;5102571;28;20939;-61
2022/12/11 10:07:14;;;;;;;2.87;1.77;;;0.80;99.90;;;;;;5111857;28;20437;-61
2022/12/11 10:09:49;;;;;;;3.83;1.90;;;0.90;99.90;;;;;;5104674;28;20833;-61
2022/12/11 10:12:38;;;;;;;6.80;2.23;;;1.00;99.90;;;;;;5116373;28;20448;-61
2022/12/11 10:15:25;;;;;;;4.63;2.77;;;1.00;99.90;;;;;;5101259;28;20452;-61
2022/12/11 10:17:55;;;;;;;7.43;3.20;;;1.00;99.90;;;;;;5106844;28;20471;-62
2022/12/11 10:20:25;;;;;;;12.73;2.93;;;1.00;99.90;;;;;;5116723;28;20445;-62
2022/12/11 10:22:53;;;;;;;6.70;2.30;;;1.00;99.90;;;;;;5095620;28;20457;-62
2022/12/11 10:25:23;;;;;;;3.90;2.43;;;1.10;99.90;;;;;;5112821;28;20969;-61
2022/12/11 10:27:51;;;;;;;3.60;1.40;;;1.00;99.90;;;;;;5113796;28;20507;-61
2022/12/11 10:30:21;;;;;;;6.10;2.60;;;1.00;99.90;;;;;;5116798;28;20448;-62
2022/12/11 10:32:54;;;;;;;5.33;2.13;;;1.00;99.90;;;;;;5106645;28;20489;-62
2022/12/11 10:35:29;;;;;;;6.67;2.00;;;1.10;99.90;;;;;;5114765;28;20514;-62
2022/12/11 10:38:02;;;;;;;5.30;2.30;;;1.10;99.90;;;;;;5103317;28;20540;-62
2022/12/11 10:40:31;;;;;;;4.03;1.60;;;1.20;99.90;;;;;;5093528;28;20544;-62
2022/12/11 10:42:58;;;;;;;10.83;1.87;;;1.20;99.90;;;;;;5118993;27;21052;-62
2022/12/11 10:45:26;;;;;;;2.97;1.40;;;1.10;99.90;;;;;;5113848;27;20453;-62
2022/12/11 10:48:03;;;;;;;5.47;2.37;;;1.10;99.90;;;;;;5112753;27;20503;-62
2022/12/11 10:50:30;;;;;;;4.93;1.60;;;1.10;99.90;;;;;;5109749;28;20419;-62
2022/12/11 10:52:58;;;;;;;3.00;1.30;;;1.30;99.90;;;;;;5116703;28;20427;-62
2022/12/11 10:55:28;;;;;;;5.57;2.10;;;1.40;99.90;;;;;;5116377;28;20446;-62
2022/12/11 10:57:59;;;;;;;5.30;1.80;;;1.70;99.90;;;;;;5113001;28;20578;-63
2022/12/11 11:00:31;;;;;;;5.23;2.63;;;1.70;99.90;;;;;;5108943;28;20477;-62
2022/12/11 11:02:59;;;;;;;7.53;1.83;;;1.80;99.90;;;;;;5112698;28;20455;-62
2022/12/11 11:05:33;;;;;;;5.07;2.23;;;1.80;99.90;;;;;;5102800;27;20485;-62
2022/12/11 11:08:11;;;;;;;6.03;2.33;;;1.60;99.90;;;;;;5101997;28;20461;-62
2022/12/11 11:10:38;;;;;;;5.33;1.93;;;1.60;99.90;;;;;;5115165;28;20720;-62
2022/12/11 11:13:13;;;;;;;5.80;2.03;;;1.40;99.90;;;;;;5115085;28;20499;-62
2022/12/11 11:15:41;;;;;;;3.57;1.50;;;1.40;99.90;;;;;;5123321;27;20439;-61
2022/12/11 11:18:12;;;;;;;5.67;2.20;;;1.30;99.90;;;;;;5136726;27;20494;-62
2022/12/11 11:20:46;;;;;;;4.87;1.90;;;1.30;99.90;;;;;;5137997;27;20444;-61
2022/12/11 11:23:16;;;;;;;7.67;3.00;;;1.10;99.90;;;;;;5137409;27;20478;-61
2022/12/11 11:25:51;;;;;;;5.97;1.77;;;1.10;99.90;;;;;;5130940;27;20461;-61
2022/12/11 11:28:22;;;;;;;4.53;1.73;;;1.10;99.90;;;;;;5105049;27;20451;-61
2022/12/11 11:31:08;;;;;;;3.53;1.73;;;1.20;99.90;;;;;;5114520;28;20488;-61
2022/12/11 11:33:37;;;;;;;9.40;3.13;;;1.40;99.90;;;;;;5109824;28;20467;-61
2022/12/11 11:36:06;;;;;;;5.30;2.43;;;1.60;99.90;;;;;;5114103;27;20447;-62
2022/12/11 11:38:37;;;;;;;6.87;2.83;;;1.70;99.90;;;;;;5135006;27;20509;-63
2022/12/11 11:41:12;;;;;;;6.23;2.60;;;1.90;99.90;;;;;;5121469;27;20537;-60
2022/12/11 11:43:45;;;;;;;8.97;4.50;;;2.00;99.90;;;;;;5111726;28;20460;-61
2022/12/11 11:46:20;;;;;;;9.87;4.80;;;2.10;99.90;;;;;;5126932;27;20527;-61
2022/12/11 11:49:07;;;;;;;8.50;4.17;;;2.10;99.90;;;;;;5123007;27;20462;-61
2022/12/11 11:51:38;;;;;;;5.17;3.13;;;2.00;99.90;;;;;;5110787;28;20846;-61
2022/12/11 11:54:20;;;;;;;7.27;2.40;;;2.10;99.90;;;;;;5112538;28;20513;-61
2022/12/11 11:56:54;;;;;;;4.13;1.90;;;2.00;99.90;;;;;;5111933;28;20778;-61
2022/12/11 11:59:24;;;;;;;6.70;2.70;;;2.10;99.90;;;;;;5115197;28;20920;-62
2022/12/11 12:01:56;;;;;;;9.80;4.37;;;2.30;99.90;;;;;;5118001;28;20432;-61
2022/12/11 12:04:27;;;;;;;5.80;4.03;;;2.20;99.90;;;;;;5117773;28;20890;-62
2022/12/11 12:07:08;;;;;;;8.43;4.27;;;2.30;99.90;;;;;;5104289;28;20805;-60
2022/12/11 12:09:44;;;;;;;7.07;3.80;;;2.30;99.90;;;;;;5098265;28;20417;-60
2022/12/11 12:12:21;;;;;;;6.90;3.63;;;2.30;99.90;;;;;;5097986;28;20456;-61
2022/12/11 12:15:12;;;;;;;5.10;2.77;;;2.10;99.90;;;;;;5100532;28;20487;-62
2022/12/11 12:17:51;;;;;;;7.40;4.03;;;2.00;99.90;;;;;;5108814;28;20536;-62
2022/12/11 12:20:25;;;;;;;6.67;3.17;;;2.10;99.90;;;;;;5099610;28;20857;-61
2022/12/11 12:23:02;;;;;;;3.83;2.03;;;2.00;99.90;;;;;;5091073;28;20465;-61
2022/12/11 12:25:37;;;;;;;6.50;4.10;;;1.90;99.90;;;;;;5114347;28;20466;-61
2022/12/11 12:28:19;;;;;;;11.27;3.50;;;1.70;99.90;;;;;;5117629;28;20448;-61
2022/12/11 12:31:02;;;;;;;7.73;3.90;;;1.40;99.90;;;;;;5111409;28;20529;-61
2022/12/11 12:33:44;;;;;;;7.10;4.27;;;1.40;99.90;;;;;;5105622;28;20924;-61
2022/12/11 12:36:21;;;;;;;5.43;2.83;;;1.60;99.90;;;;;;5097659;28;20462;-61
2022/12/11 12:38:53;;;;;;;10.40;4.20;;;1.70;99.90;;;;;;5098297;28;20431;-61
2022/12/11 12:41:24;;;;;;;3.60;2.03;;;1.90;99.90;;;;;;5112033;28;20458;-61
2022/12/11 12:44:02;;;;;;;9.43;3.60;;;1.90;99.90;;;;;;5115109;28;20460;-61
2022/12/11 12:46:41;;;;;;;10.73;3.93;;;1.70;99.90;;;;;;5092059;28;20454;-60
2022/12/11 12:49:15;;;;;;;6.57;2.73;;;1.70;99.90;;;;;;5103225;28;20434;-60
2022/12/11 12:51:43;;;;;;;9.70;4.10;;;1.70;99.90;;;;;;5093593;28;20527;-61
2022/12/11 12:54:15;;;;;;;4.17;2.90;;;1.70;99.90;;;;;;5089666;28;20558;-63
2022/12/11 12:56:44;;;;;;;6.97;2.80;;;1.60;99.90;;;;;;5102629;28;20572;-60
2022/12/11 12:59:20;;;;;;;4.60;2.37;;;1.70;99.90;;;;;;5097408;28;20484;-61
2022/12/11 13:01:53;;;;;;;10.97;4.70;;;1.80;99.90;;;;;;5098084;28;20872;-61
2022/12/11 13:04:38;;;;;;;9.70;4.83;;;1.90;99.90;;;;;;5089418;28;20532;-62
2022/12/11 13:07:17;;;;;;;7.70;3.67;;;2.00;99.90;;;;;;5104821;28;20514;-63
2022/12/11 13:09:57;;;;;;;8.77;4.57;;;2.10;99.90;;;;;;5115640;28;20451;-63
2022/12/11 13:12:32;;;;;;;8.40;4.13;;;2.00;99.90;;;;;;5116113;28;20480;-62
2022/12/11 13:15:00;;;;;;;10.83;4.30;;;2.10;99.90;;;;;;5118380;27;20519;-63
2022/12/11 13:17:37;;;;;;;9.33;3.60;;;2.00;99.90;;;;;;5117124;28;20870;-63